Rolfsted

EKRO · 南丹麦大区, 丹麦

使用的METAR站距离机场64 km。
罗盘
风向 的 风向 150° Rolfsted 4/22
风: 4 kt, 2 beaufort

2 kt

4 kt
改变
0 ft 1.000 2.000 3.000 4.000 5.000
未检测到零云
METAR EKSB 282050Z AUTO 15004KT 9999 NCD 13/09 Q1014

METAR Rolfsted - EKRO

Rolfsted是,丹麦中的小机场。 该机场位于纬度55,32501和经度10,58162。 该机场有一条跑道: 4/22. 本场的ICAO机场代码为EKRO。 机场在Kobenhavn FIR中。

该航空气象观测是针对Sønderborg Airport在2024年5月28日 22:50, 当地时间进行的。

机场观察

风向为150°,速度为4 kt。

可见度为10 km 或者更多。

有未检测到零云。 没有观察到天花板。

温度和风寒是13 °C。 露点为9 °C,相对湿度为77%。 海平面上的气压为1014 hPa (QNH)。

白天

今天,太阳从04:47升起,在21:42降落。 这适用于Rolfsted,世界夏令时可能有所不同。 当地时间与世界标准时间之间的时差为+2 小时。 夏令时目前正在进行中。

公司介绍

我们没有关于这个机场的公司信息。

体会

到Vliegles.nl去找飞行课程,跳伞和其他飞行体验。 浏览页面,了解Rolfsted附近所有可用的活动。 你也可以使用搜索功能来寻找你所在地附近的特定飞行课程、跳伞或其他飞行体验。

跑道

Id 标题 侧风 逆风 侧风 %
4/22 034°-214° 4 kt 2 kt 90 %

逆风成分最大的方向会被突出显示,并用于横风计算。 这并不一定意味着这个方向在使用。

乌云

- NCD 未检测到零云

温度 & 天气

温度 13 °C
露点 9 °C
相对湿度 77%
Kp-index 0 (0-9)

白天

日出
04:53 (5:37)
中午
13:18
日落
21:43

小工具

你想在你的网站上有一个关于Rolfsted的当前航空天气(METAR)的小部件吗?

显示HTML代码
报告变更